createdAt,value
2023-02-25T00:01:11.940Z,96.09
2023-02-25T00:03:40.133Z,97.33
2023-02-25T00:06:09.911Z,97.15
2023-02-25T00:08:37.375Z,97.79
2023-02-25T00:11:08.207Z,97.99
2023-02-25T00:13:36.760Z,98.16
2023-02-25T00:16:04.627Z,98.46
2023-02-25T00:18:32.332Z,99.17
2023-02-25T00:21:00.120Z,99.32
2023-02-25T00:23:28.512Z,98.80
2023-02-25T00:25:59.513Z,99.47
2023-02-25T00:28:29.291Z,98.56
2023-02-25T00:30:56.819Z,98.36
2023-02-25T00:33:24.622Z,98.32
2023-02-25T00:35:52.405Z,98.30
2023-02-25T00:38:19.803Z,98.03
2023-02-25T00:40:47.170Z,98.80
2023-02-25T00:43:14.573Z,98.19
2023-02-25T00:45:43.248Z,98.17
2023-02-25T00:48:10.604Z,97.92
2023-02-25T00:50:39.652Z,98.13
2023-02-25T00:53:07.049Z,98.45
2023-02-25T00:55:34.455Z,97.76
2023-02-25T00:58:02.130Z,97.95
2023-02-25T01:00:35.835Z,97.51
2023-02-25T01:03:09.397Z,97.19
2023-02-25T01:05:41.623Z,96.85
2023-02-25T01:08:09.222Z,95.92
2023-02-25T01:10:36.589Z,96.77
2023-02-25T01:13:04.813Z,96.10
2023-02-25T01:15:32.189Z,95.68
2023-02-25T01:17:59.603Z,95.80
2023-02-25T01:20:29.878Z,95.69
2023-02-25T01:22:57.348Z,94.66
2023-02-25T01:25:25.608Z,94.17
2023-02-25T01:27:55.323Z,93.59
2023-02-25T01:30:23.263Z,93.38
2023-02-25T01:32:50.755Z,93.21
2023-02-25T01:35:18.334Z,93.58
2023-02-25T01:37:47.578Z,93.01
2023-02-25T01:40:18.642Z,92.04
2023-02-25T01:42:47.233Z,92.16
2023-02-25T01:45:27.829Z,91.49
2023-02-25T01:48:00.989Z,92.10
2023-02-25T01:50:36.496Z,92.38
2023-02-25T01:53:05.645Z,92.77
2023-02-25T01:55:34.186Z,93.28
2023-02-25T01:58:02.208Z,95.10
2023-02-25T02:00:32.292Z,93.64
2023-02-25T02:03:00.711Z,94.07
2023-02-25T02:05:41.441Z,95.01
2023-02-25T02:08:10.896Z,94.29
2023-02-25T02:10:38.325Z,92.78
2023-02-25T02:13:06.048Z,91.21
2023-02-25T02:15:38.883Z,91.65
2023-02-25T02:18:08.525Z,90.61
2023-02-25T02:20:52.318Z,89.81
2023-02-25T02:23:40.604Z,89.71
2023-02-25T02:26:43.269Z,89.00
2023-02-25T02:29:25.913Z,89.09
2023-02-25T02:32:05.709Z,88.32
2023-02-25T02:34:44.621Z,88.66
2023-02-25T02:37:25.824Z,89.69
2023-02-25T02:40:06.608Z,89.42
2023-02-25T02:42:41.337Z,89.77
2023-02-25T02:45:14.469Z,89.41
2023-02-25T02:47:46.467Z,88.84
2023-02-25T02:50:22.391Z,89.40
2023-02-25T02:52:54.050Z,90.08
2023-02-25T02:55:25.672Z,89.52
2023-02-25T02:57:59.221Z,90.38
2023-02-25T03:00:31.749Z,90.35
2023-02-25T03:03:06.579Z,91.95
2023-02-25T03:05:37.425Z,91.27
2023-02-25T03:08:10.016Z,90.84
2023-02-25T03:10:38.089Z,91.30
2023-02-25T03:13:05.542Z,91.83
2023-02-25T03:15:34.119Z,91.00
2023-02-25T03:18:06.951Z,92.00
2023-02-25T03:20:40.199Z,91.79
2023-02-25T03:23:13.378Z,92.45
2023-02-25T03:25:47.613Z,91.93
2023-02-25T03:28:25.467Z,92.29
2023-02-25T03:31:01.532Z,92.34
2023-02-25T03:33:35.639Z,91.43
2023-02-25T03:36:08.788Z,91.52
2023-02-25T03:38:39.374Z,91.58
2023-02-25T03:41:08.287Z,91.62
2023-02-25T03:43:39.762Z,90.83
2023-02-25T03:46:08.474Z,91.16
2023-02-25T03:48:38.790Z,91.54
2023-02-25T03:51:07.458Z,91.20
2023-02-25T03:53:35.895Z,91.32
2023-02-25T03:56:08.751Z,91.54
2023-02-25T03:58:38.399Z,92.77
2023-02-25T04:01:09.618Z,93.04
2023-02-25T04:03:38.453Z,94.38
2023-02-25T04:06:06.463Z,94.95
2023-02-25T04:08:33.747Z,95.53
2023-02-25T04:11:01.102Z,95.79
2023-02-25T04:13:28.488Z,96.95
2023-02-25T04:15:55.872Z,97.25
2023-02-25T04:18:24.763Z,96.99
2023-02-25T04:20:53.479Z,96.43
2023-02-25T04:23:20.834Z,97.07
2023-02-25T04:25:48.213Z,97.27
2023-02-25T04:28:15.580Z,97.15
2023-02-25T04:30:43.260Z,96.35
2023-02-25T04:33:11.229Z,96.85
2023-02-25T04:35:39.178Z,97.04
2023-02-25T04:38:09.208Z,97.18
2023-02-25T04:40:36.831Z,97.07
2023-02-25T04:43:04.216Z,97.01
2023-02-25T04:45:31.655Z,96.83
2023-02-25T04:47:59.064Z,97.26
2023-02-25T04:50:26.657Z,97.58
2023-02-25T04:52:54.112Z,98.12
2023-02-25T04:55:22.818Z,97.01
2023-02-25T04:57:50.187Z,97.99
2023-02-25T05:00:20.154Z,97.78
2023-02-25T05:02:48.769Z,98.02
2023-02-25T05:05:17.554Z,97.52
2023-02-25T05:07:44.921Z,98.53
2023-02-25T05:10:14.506Z,98.29
2023-02-25T05:12:43.336Z,99.03
2023-02-25T05:15:12.114Z,98.97
2023-02-25T05:17:39.698Z,98.32
2023-02-25T05:20:12.735Z,99.01
2023-02-25T05:22:41.061Z,98.39
2023-02-25T05:25:10.016Z,98.66
2023-02-25T05:27:37.566Z,98.27
2023-02-25T05:30:07.546Z,98.49
2023-02-25T05:32:35.120Z,98.30
2023-02-25T05:35:02.594Z,98.47
2023-02-25T05:37:31.899Z,98.32
2023-02-25T05:39:59.443Z,98.62
2023-02-25T05:42:26.802Z,99.35
2023-02-25T05:44:54.232Z,99.26
2023-02-25T05:47:22.924Z,98.72
2023-02-25T05:49:50.333Z,98.80
2023-02-25T05:52:18.061Z,98.95
2023-02-25T05:54:45.570Z,99.00
2023-02-25T05:57:12.935Z,99.59
2023-02-25T05:59:40.302Z,99.62
2023-02-25T06:02:07.798Z,98.71
2023-02-25T06:04:36.545Z,99.11
2023-02-25T06:07:04.264Z,99.55
2023-02-25T06:09:32.044Z,99.70
2023-02-25T06:11:59.425Z,99.28
2023-02-25T06:14:27.052Z,99.50
2023-02-25T06:16:56.725Z,99.22
2023-02-25T06:19:26.228Z,99.30
2023-02-25T06:21:55.186Z,98.78
2023-02-25T06:24:22.610Z,99.53
2023-02-25T06:26:49.999Z,98.50
2023-02-25T06:29:17.595Z,98.60
2023-02-25T06:31:45.127Z,98.43
2023-02-25T06:34:12.606Z,98.49
2023-02-25T06:36:39.975Z,97.61
2023-02-25T06:39:08.914Z,97.69
2023-02-25T06:41:36.267Z,98.25
2023-02-25T06:44:04.263Z,97.83
2023-02-25T06:46:31.644Z,97.18
2023-02-25T06:48:59.121Z,98.08
2023-02-25T06:51:26.519Z,97.29
2023-02-25T06:53:53.883Z,97.35
2023-02-25T06:56:23.202Z,97.21
2023-02-25T06:58:52.498Z,97.83
2023-02-25T07:01:19.963Z,97.19
2023-02-25T07:03:47.435Z,97.16
2023-02-25T07:06:15.829Z,97.31
2023-02-25T07:08:43.603Z,96.97
2023-02-25T07:11:15.006Z,97.63
2023-02-25T07:13:44.261Z,97.43
2023-02-25T07:16:12.064Z,96.90
2023-02-25T07:18:39.515Z,96.79
2023-02-25T07:21:07.567Z,96.01
2023-02-25T07:23:35.222Z,95.65
2023-02-25T07:26:04.209Z,95.10
2023-02-25T07:28:31.710Z,96.11
2023-02-25T07:31:03.029Z,96.26
2023-02-25T07:33:31.777Z,96.59
2023-02-25T07:35:59.372Z,96.50
2023-02-25T07:38:26.774Z,95.91
2023-02-25T07:40:54.259Z,95.65
2023-02-25T07:43:22.037Z,96.10
2023-02-25T07:45:50.387Z,95.83
2023-02-25T07:48:19.622Z,95.95
2023-02-25T07:50:46.992Z,94.83
2023-02-25T07:53:14.404Z,94.29
2023-02-25T07:55:43.538Z,95.94
2023-02-25T07:58:11.229Z,95.89
2023-02-25T08:00:39.496Z,95.73
2023-02-25T08:03:06.892Z,96.37
2023-02-25T08:05:36.026Z,96.44
2023-02-25T08:08:03.581Z,97.35
2023-02-25T08:10:31.078Z,97.71
2023-02-25T08:12:58.438Z,97.25
2023-02-25T08:15:25.806Z,97.36
2023-02-25T08:17:55.796Z,98.09
2023-02-25T08:20:23.255Z,98.52
2023-02-25T08:22:52.013Z,98.65
2023-02-25T08:25:19.429Z,98.99
2023-02-25T08:27:46.813Z,98.84
2023-02-25T08:30:15.132Z,98.39
2023-02-25T08:32:42.822Z,98.79
2023-02-25T08:35:11.246Z,98.84
2023-02-25T08:37:38.613Z,98.81
2023-02-25T08:40:10.191Z,98.56
2023-02-25T08:42:37.662Z,98.78
2023-02-25T08:45:05.963Z,98.89
2023-02-25T08:47:33.582Z,100.00
2023-02-25T08:50:01.219Z,100.00
2023-02-25T08:52:33.517Z,100.00
2023-02-25T08:55:01.746Z,99.14
2023-02-25T08:57:31.638Z,99.96
2023-02-25T08:59:59.037Z,98.64
2023-02-25T09:02:26.455Z,96.34
2023-02-25T09:04:54.089Z,96.69
2023-02-25T09:07:22.076Z,95.40
2023-02-25T09:09:49.360Z,95.73
2023-02-25T09:12:16.781Z,94.37
2023-02-25T09:14:45.497Z,94.55
2023-02-25T09:17:12.908Z,93.77
2023-02-25T09:19:40.525Z,93.53
2023-02-25T09:22:09.344Z,93.59
2023-02-25T09:24:37.605Z,93.23
2023-02-25T09:27:07.856Z,94.11
2023-02-25T09:29:35.538Z,94.64
2023-02-25T09:32:05.288Z,94.20
2023-02-25T09:34:34.074Z,93.86
2023-02-25T09:37:01.652Z,94.89
2023-02-25T09:39:29.021Z,94.53
2023-02-25T09:42:00.965Z,94.94
2023-02-25T09:44:30.721Z,95.03
2023-02-25T09:47:03.491Z,95.75
2023-02-25T09:49:37.553Z,95.70
2023-02-25T09:52:12.381Z,95.13
2023-02-25T09:54:46.380Z,95.20
2023-02-25T09:57:18.977Z,94.93
2023-02-25T09:59:47.349Z,94.64
2023-02-25T10:02:27.779Z,94.94
2023-02-25T10:05:14.352Z,95.98
2023-02-25T10:07:50.705Z,95.82
2023-02-25T10:10:22.761Z,96.12
2023-02-25T10:12:57.541Z,95.53
2023-02-25T10:15:52.395Z,96.18
2023-02-25T10:18:39.002Z,96.27
2023-02-25T10:21:18.600Z,97.09
2023-02-25T10:24:03.062Z,96.95
2023-02-25T10:26:34.434Z,96.89
2023-02-25T10:29:07.106Z,96.85
2023-02-25T10:31:36.405Z,95.49
2023-02-25T10:34:20.696Z,95.35
2023-02-25T10:36:54.458Z,95.17
2023-02-25T10:39:22.088Z,96.06
2023-02-25T10:41:50.192Z,96.15
2023-02-25T10:44:18.043Z,95.94
2023-02-25T10:46:52.055Z,96.82
2023-02-25T10:49:22.917Z,96.39
2023-02-25T10:52:03.923Z,97.13
2023-02-25T10:54:33.780Z,98.08
2023-02-25T10:57:03.161Z,96.99
2023-02-25T10:59:37.048Z,97.91
2023-02-25T11:02:18.796Z,97.71
2023-02-25T11:04:46.887Z,97.51
2023-02-25T11:07:25.772Z,97.06
2023-02-25T11:10:09.218Z,97.39
2023-02-25T11:12:42.046Z,97.01
2023-02-25T11:15:43.244Z,96.78
2023-02-25T11:18:20.682Z,95.24
2023-02-25T11:20:51.424Z,96.59
2023-02-25T11:23:24.872Z,95.32
2023-02-25T11:25:53.857Z,96.03
2023-02-25T11:28:29.239Z,95.54
2023-02-25T11:31:06.544Z,94.52
2023-02-25T11:33:37.207Z,94.93
2023-02-25T11:36:05.660Z,94.67
2023-02-25T11:38:37.020Z,94.90
2023-02-25T11:41:05.555Z,95.40
2023-02-25T11:43:37.104Z,95.39
2023-02-25T11:46:11.393Z,94.81
2023-02-25T11:48:47.290Z,95.01
2023-02-25T11:51:25.483Z,94.64
2023-02-25T11:54:19.056Z,96.05
2023-02-25T11:56:51.217Z,95.28
2023-02-25T11:59:37.043Z,95.71
2023-02-25T12:02:25.134Z,95.21
2023-02-25T12:05:06.658Z,94.66
2023-02-25T12:08:10.352Z,94.49
2023-02-25T12:11:13.338Z,95.78
2023-02-25T12:14:34.360Z,95.40
2023-02-25T12:17:26.650Z,95.05
2023-02-25T12:20:29.987Z,95.32
2023-02-25T12:23:39.476Z,95.02
2023-02-25T12:26:14.523Z,96.40
2023-02-25T12:29:00.484Z,97.46
2023-02-25T12:32:02.217Z,96.63
2023-02-25T12:35:07.222Z,97.72
2023-02-25T12:37:55.446Z,96.58
2023-02-25T12:40:37.195Z,97.42
2023-02-25T12:43:19.737Z,96.76
2023-02-25T12:46:06.329Z,96.26
2023-02-25T12:48:50.032Z,96.52
2023-02-25T12:51:32.369Z,96.49
2023-02-25T12:54:10.282Z,95.93
2023-02-25T12:56:53.238Z,95.39
2023-02-25T12:59:55.128Z,95.80
2023-02-25T13:02:43.322Z,96.13
2023-02-25T13:05:26.867Z,95.84
2023-02-25T13:08:08.470Z,96.12
2023-02-25T13:10:46.000Z,95.86
2023-02-25T13:13:47.093Z,95.85
2023-02-25T13:16:28.020Z,96.14
2023-02-25T13:19:15.681Z,95.72
2023-02-25T13:21:46.509Z,96.79
2023-02-25T13:24:27.397Z,97.29
2023-02-25T13:27:14.621Z,96.67
2023-02-25T13:30:12.241Z,98.48
2023-02-25T13:32:49.652Z,97.26
2023-02-25T13:35:28.843Z,96.20
2023-02-25T13:38:12.082Z,98.42
2023-02-25T13:40:51.311Z,98.53
2023-02-25T13:43:33.964Z,99.28
2023-02-25T13:46:20.958Z,97.89
2023-02-25T13:49:06.064Z,96.45
2023-02-25T13:52:04.826Z,94.05
2023-02-25T13:54:53.399Z,92.66
2023-02-25T13:57:34.746Z,93.10
2023-02-25T14:00:22.051Z,93.45
2023-02-25T14:03:10.552Z,95.14
2023-02-25T14:05:57.362Z,96.55
2023-02-25T14:08:48.523Z,96.41
2023-02-25T14:11:34.682Z,95.57
2023-02-25T14:14:19.274Z,94.88
2023-02-25T14:17:03.800Z,94.83
2023-02-25T14:19:41.082Z,95.08
2023-02-25T14:22:28.351Z,94.26
2023-02-25T14:25:07.989Z,93.91
2023-02-25T14:27:43.168Z,94.61
2023-02-25T14:30:21.488Z,94.49
2023-02-25T14:33:02.241Z,95.51
2023-02-25T14:35:52.971Z,96.67
2023-02-25T14:38:30.194Z,95.29
2023-02-25T14:41:10.265Z,95.02
2023-02-25T14:43:38.521Z,95.57
2023-02-25T14:46:16.456Z,96.19
2023-02-25T14:48:50.385Z,95.79
2023-02-25T14:51:54.253Z,97.82
2023-02-25T14:54:45.035Z,96.39
2023-02-25T14:57:31.539Z,96.30
2023-02-25T15:00:15.646Z,95.99
2023-02-25T15:03:11.035Z,94.80
2023-02-25T15:05:49.927Z,95.35
2023-02-25T15:08:48.288Z,97.00
2023-02-25T15:11:38.220Z,97.64
2023-02-25T15:14:26.448Z,97.04
2023-02-25T15:17:21.637Z,97.28
2023-02-25T15:20:25.234Z,96.26
2023-02-25T15:23:06.888Z,96.91
2023-02-25T15:25:44.857Z,98.35
2023-02-25T15:28:36.860Z,96.93
2023-02-25T15:31:34.058Z,98.10
2023-02-25T15:34:44.345Z,98.77
2023-02-25T15:37:31.169Z,98.36
2023-02-25T15:40:00.289Z,98.98
2023-02-25T15:42:45.653Z,98.11
2023-02-25T15:45:43.402Z,98.56
2023-02-25T15:48:31.699Z,97.38
2023-02-25T15:51:01.022Z,96.04
2023-02-25T15:53:42.088Z,93.83
2023-02-25T15:56:45.374Z,92.94
2023-02-25T15:59:43.341Z,94.33
2023-02-25T16:02:35.153Z,93.18
2023-02-25T16:05:05.638Z,92.45
2023-02-25T16:07:35.741Z,93.14
2023-02-25T16:10:07.883Z,92.51
2023-02-25T16:12:35.889Z,93.59
2023-02-25T16:15:03.671Z,94.39
2023-02-25T16:17:33.790Z,94.18
2023-02-25T16:20:12.433Z,93.72
2023-02-25T16:22:45.291Z,95.10
2023-02-25T16:25:17.288Z,95.74
2023-02-25T16:27:55.276Z,95.03
2023-02-25T16:30:24.677Z,95.56
2023-02-25T16:33:01.075Z,94.87
2023-02-25T16:35:36.684Z,95.28
2023-02-25T16:38:13.317Z,95.74
2023-02-25T16:40:43.075Z,96.62
2023-02-25T16:43:14.073Z,96.43
2023-02-25T16:45:45.381Z,97.03
2023-02-25T16:48:18.409Z,98.13
2023-02-25T16:50:49.015Z,98.27
2023-02-25T16:53:19.456Z,97.71
2023-02-25T16:55:48.235Z,96.34
2023-02-25T16:58:26.267Z,97.24
2023-02-25T17:00:56.260Z,97.07
2023-02-25T17:03:26.013Z,98.16
2023-02-25T17:06:04.116Z,98.02
2023-02-25T17:08:31.656Z,98.72
2023-02-25T17:11:01.973Z,98.75
2023-02-25T17:13:32.917Z,99.44
2023-02-25T17:16:03.742Z,99.25
2023-02-25T17:18:35.641Z,98.06
2023-02-25T17:21:09.176Z,98.73
2023-02-25T17:23:41.076Z,97.90
2023-02-25T17:26:12.552Z,97.40
2023-02-25T17:28:40.560Z,97.68
2023-02-25T17:31:09.658Z,98.13
2023-02-25T17:33:48.098Z,98.83
2023-02-25T17:36:20.339Z,98.56
2023-02-25T17:38:51.022Z,99.07
2023-02-25T17:41:19.875Z,98.63
2023-02-25T17:43:47.697Z,99.60
2023-02-25T17:46:21.305Z,97.00
2023-02-25T17:48:53.150Z,95.88
2023-02-25T17:51:31.212Z,95.78
2023-02-25T17:54:04.202Z,94.50
2023-02-25T17:56:34.432Z,93.31
2023-02-25T17:59:09.268Z,93.59
2023-02-25T18:01:47.871Z,94.84
2023-02-25T18:04:24.552Z,94.71
2023-02-25T18:06:55.388Z,95.64
2023-02-25T18:09:39.179Z,95.72
2023-02-25T18:12:09.458Z,97.15
2023-02-25T18:14:39.516Z,97.35
2023-02-25T18:17:21.186Z,97.79
2023-02-25T18:19:49.212Z,98.34
2023-02-25T18:22:30.272Z,99.96
2023-02-25T18:25:00.147Z,100.00
2023-02-25T18:27:30.648Z,100.00
2023-02-25T18:30:02.538Z,100.00
2023-02-25T18:32:30.152Z,100.00
2023-02-25T18:34:57.947Z,100.00
2023-02-25T18:37:26.582Z,100.00
2023-02-25T18:39:55.295Z,100.00
2023-02-25T18:42:22.690Z,100.00
2023-02-25T18:44:50.230Z,100.00
2023-02-25T18:47:18.149Z,100.00
2023-02-25T18:49:45.881Z,100.00
2023-02-25T18:52:21.624Z,100.00
2023-02-25T18:54:49.447Z,100.00
2023-02-25T18:57:24.969Z,100.00
2023-02-25T18:59:53.000Z,100.00
2023-02-25T19:02:45.047Z,100.00
2023-02-25T19:05:12.847Z,100.00
2023-02-25T19:07:40.405Z,100.00
2023-02-25T19:10:12.726Z,100.00
2023-02-25T19:12:41.802Z,100.00
2023-02-25T19:15:16.005Z,100.00
2023-02-25T19:17:44.000Z,100.00
2023-02-25T19:20:12.118Z,99.79
2023-02-25T19:22:44.202Z,99.00
2023-02-25T19:25:19.990Z,99.34
2023-02-25T19:27:49.465Z,99.37
2023-02-25T19:30:19.473Z,99.79
2023-02-25T19:32:46.972Z,99.82
2023-02-25T19:35:15.041Z,99.55
2023-02-25T19:37:42.757Z,100.00
2023-02-25T19:40:13.106Z,100.00
2023-02-25T19:42:42.141Z,100.00
2023-02-25T19:45:14.157Z,100.00
2023-02-25T19:47:41.833Z,100.00
2023-02-25T19:50:11.518Z,99.89
2023-02-25T19:52:39.668Z,99.99
2023-02-25T19:55:08.191Z,99.59
2023-02-25T19:57:35.754Z,99.32
2023-02-25T20:00:03.679Z,98.88
2023-02-25T20:02:32.376Z,99.11
2023-02-25T20:04:59.814Z,98.73
2023-02-25T20:07:27.350Z,99.12
2023-02-25T20:09:54.929Z,98.67
2023-02-25T20:12:22.508Z,99.48
2023-02-25T20:14:50.088Z,99.56
2023-02-25T20:17:17.628Z,99.78
2023-02-25T20:19:47.660Z,100.00
2023-02-25T20:22:15.167Z,99.70
2023-02-25T20:24:42.687Z,99.81
2023-02-25T20:27:10.244Z,98.91
2023-02-25T20:29:37.666Z,99.76
2023-02-25T20:32:05.340Z,100.00
2023-02-25T20:34:33.204Z,100.00
2023-02-25T20:37:05.289Z,100.00
2023-02-25T20:39:48.042Z,99.93
2023-02-25T20:42:20.033Z,99.89
2023-02-25T20:44:50.345Z,99.91
2023-02-25T20:47:21.777Z,100.00
2023-02-25T20:49:50.036Z,100.00
2023-02-25T20:52:20.052Z,100.00
2023-02-25T20:54:49.727Z,100.00
2023-02-25T20:57:19.281Z,100.00
2023-02-25T20:59:48.240Z,100.00
2023-02-25T21:02:16.723Z,100.00
2023-02-25T21:04:45.333Z,100.00
2023-02-25T21:07:14.059Z,99.61
2023-02-25T21:09:43.605Z,98.98
2023-02-25T21:12:11.775Z,99.49
2023-02-25T21:14:39.498Z,98.79
2023-02-25T21:17:09.598Z,99.77
2023-02-25T21:19:38.688Z,99.26
2023-02-25T21:22:06.992Z,98.67
2023-02-25T21:24:34.884Z,98.69
2023-02-25T21:27:04.216Z,98.37
2023-02-25T21:29:32.474Z,98.22
2023-02-25T21:32:00.012Z,97.61
2023-02-25T21:34:27.937Z,97.89
2023-02-25T21:36:59.143Z,98.78
2023-02-25T21:39:26.865Z,98.47
2023-02-25T21:41:54.416Z,97.68
2023-02-25T21:44:23.371Z,97.92
2023-02-25T21:46:50.834Z,98.12
2023-02-25T21:49:18.472Z,97.88
2023-02-25T21:51:47.760Z,98.51
2023-02-25T21:54:15.448Z,99.14
2023-02-25T21:56:43.582Z,99.07
2023-02-25T21:59:11.168Z,99.10
2023-02-25T22:01:42.300Z,99.21
2023-02-25T22:04:11.102Z,98.78
2023-02-25T22:06:38.878Z,98.53
2023-02-25T22:09:07.518Z,98.44
2023-02-25T22:11:37.420Z,99.00
2023-02-25T22:14:07.310Z,98.80
2023-02-25T22:16:35.528Z,98.74
2023-02-25T22:19:05.416Z,99.22
2023-02-25T22:21:35.433Z,99.85
2023-02-25T22:24:04.444Z,99.84
2023-02-25T22:26:33.760Z,99.87
2023-02-25T22:29:04.450Z,99.63
2023-02-25T22:31:34.137Z,99.58
2023-02-25T22:34:02.497Z,99.53
2023-02-25T22:36:31.534Z,99.62
2023-02-25T22:38:58.986Z,99.57
2023-02-25T22:41:28.700Z,98.90
2023-02-25T22:43:57.747Z,98.69
2023-02-25T22:46:28.522Z,98.77
2023-02-25T22:48:56.794Z,98.49
2023-02-25T22:51:27.056Z,98.44
2023-02-25T22:53:56.721Z,98.56
2023-02-25T22:56:25.570Z,98.97
2023-02-25T22:58:53.689Z,99.83
2023-02-25T23:01:22.507Z,99.80
2023-02-25T23:03:51.091Z,100.00
2023-02-25T23:06:22.177Z,99.51
2023-02-25T23:08:51.894Z,99.07
2023-02-25T23:11:23.215Z,99.24
2023-02-25T23:13:53.834Z,99.57
2023-02-25T23:16:23.889Z,100.00
2023-02-25T23:18:53.241Z,99.31
2023-02-25T23:21:22.063Z,99.89
2023-02-25T23:23:50.994Z,99.93
2023-02-25T23:26:23.675Z,99.98
2023-02-25T23:28:55.133Z,100.00
2023-02-25T23:31:24.206Z,99.63
2023-02-25T23:33:55.512Z,100.00
2023-02-25T23:36:23.658Z,99.80
2023-02-25T23:38:54.043Z,99.95
2023-02-25T23:41:23.472Z,100.00
2023-02-25T23:43:52.986Z,100.00
2023-02-25T23:46:20.875Z,99.75
2023-02-25T23:48:48.721Z,99.71
2023-02-25T23:51:16.250Z,100.00
2023-02-25T23:53:43.895Z,100.00
2023-02-25T23:56:13.367Z,100.00
2023-02-25T23:58:42.228Z,100.00
